sensor_id;sensor_type;location;lat;lon;timestamp;pressure;altitude;pressure_sealevel;temperature;humidity
35224;BME280;21367;51.930;8.112;2023-04-10T00:03:00;101704.06;;;6.57;78.48
35224;BME280;21367;51.930;8.112;2023-04-10T00:08:04;101700.66;;;6.68;77.70
35224;BME280;21367;51.930;8.112;2023-04-10T00:13:08;101695.91;;;6.39;79.33
35224;BME280;21367;51.930;8.112;2023-04-10T00:18:15;101688.84;;;5.91;81.30
35224;BME280;21367;51.930;8.112;2023-04-10T00:23:20;101677.50;;;6.43;79.97
35224;BME280;21367;51.930;8.112;2023-04-10T00:28:24;101673.63;;;6.36;78.77
35224;BME280;21367;51.930;8.112;2023-04-10T00:33:30;101667.69;;;6.25;79.46
35224;BME280;21367;51.930;8.112;2023-04-10T00:38:35;101662.41;;;6.00;80.64
35224;BME280;21367;51.930;8.112;2023-04-10T00:43:39;101666.25;;;6.17;81.21
35224;BME280;21367;51.930;8.112;2023-04-10T00:48:45;101657.31;;;6.46;79.28
35224;BME280;21367;51.930;8.112;2023-04-10T00:53:50;101649.88;;;6.03;81.21
35224;BME280;21367;51.930;8.112;2023-04-10T00:58:54;101651.69;;;6.16;80.69
35224;BME280;21367;51.930;8.112;2023-04-10T01:04:01;101654.56;;;5.87;83.33
35224;BME280;21367;51.930;8.112;2023-04-10T01:09:10;101654.19;;;5.71;83.70
35224;BME280;21367;51.930;8.112;2023-04-10T01:14:26;101646.88;;;5.31;83.76
35224;BME280;21367;51.930;8.112;2023-04-10T01:19:53;101639.66;;;5.48;82.94
35224;BME280;21367;51.930;8.112;2023-04-10T01:30:31;101639.03;;;5.84;83.16
35224;BME280;21367;51.930;8.112;2023-04-10T01:35:39;101636.97;;;5.68;84.65
35224;BME280;21367;51.930;8.112;2023-04-10T01:40:48;101633.19;;;5.19;87.29
35224;BME280;21367;51.930;8.112;2023-04-10T01:46:04;101641.31;;;4.93;88.63
35224;BME280;21367;51.930;8.112;2023-04-10T01:51:08;101638.38;;;4.99;88.20
35224;BME280;21367;51.930;8.112;2023-04-10T01:56:15;101632.13;;;5.27;86.62
35224;BME280;21367;51.930;8.112;2023-04-10T02:01:24;101628.69;;;5.27;87.43
35224;BME280;21367;51.930;8.112;2023-04-10T02:06:36;101615.81;;;5.47;85.47
35224;BME280;21367;51.930;8.112;2023-04-10T02:11:48;101610.72;;;5.25;85.14
35224;BME280;21367;51.930;8.112;2023-04-10T02:16:57;101594.97;;;5.19;87.38
35224;BME280;21367;51.930;8.112;2023-04-10T02:22:04;101594.38;;;4.79;88.08
35224;BME280;21367;51.930;8.112;2023-04-10T02:27:08;101595.22;;;4.48;90.67
35224;BME280;21367;51.930;8.112;2023-04-10T02:32:17;101600.44;;;4.92;89.40
35224;BME280;21367;51.930;8.112;2023-04-10T02:37:22;101606.06;;;4.87;90.12
35224;BME280;21367;51.930;8.112;2023-04-10T02:42:26;101597.84;;;4.70;91.13
35224;BME280;21367;51.930;8.112;2023-04-10T02:47:36;101587.19;;;4.96;90.03
35224;BME280;21367;51.930;8.112;2023-04-10T02:52:41;101590.81;;;4.35;91.74
35224;BME280;21367;51.930;8.112;2023-04-10T02:57:45;101588.31;;;4.99;89.84
35224;BME280;21367;51.930;8.112;2023-04-10T03:02:52;101588.81;;;4.73;90.84
35224;BME280;21367;51.930;8.112;2023-04-10T03:07:59;101587.78;;;5.03;87.70
35224;BME280;21367;51.930;8.112;2023-04-10T03:13:03;101582.78;;;4.40;90.18
35224;BME280;21367;51.930;8.112;2023-04-10T03:18:10;101581.91;;;4.40;91.43
35224;BME280;21367;51.930;8.112;2023-04-10T03:23:16;101573.50;;;4.51;90.60
35224;BME280;21367;51.930;8.112;2023-04-10T03:28:20;101571.19;;;4.86;90.24
35224;BME280;21367;51.930;8.112;2023-04-10T03:33:27;101567.53;;;4.73;89.22
35224;BME280;21367;51.930;8.112;2023-04-10T03:38:34;101559.97;;;4.52;90.56
35224;BME280;21367;51.930;8.112;2023-04-10T03:43:38;101559.81;;;4.93;89.47
35224;BME280;21367;51.930;8.112;2023-04-10T03:48:45;101562.16;;;4.48;89.31
35224;BME280;21367;51.930;8.112;2023-04-10T03:53:51;101547.53;;;4.45;90.19
35224;BME280;21367;51.930;8.112;2023-04-10T03:58:55;101549.34;;;4.68;89.78
35224;BME280;21367;51.930;8.112;2023-04-10T04:04:02;101552.34;;;4.52;90.76
35224;BME280;21367;51.930;8.112;2023-04-10T04:09:24;101546.66;;;4.34;89.76
35224;BME280;21367;51.930;8.112;2023-04-10T04:14:48;101542.41;;;4.55;89.57
35224;BME280;21367;51.930;8.112;2023-04-10T04:20:27;101544.84;;;4.86;86.93
35224;BME280;21367;51.930;8.112;2023-04-10T04:25:46;101557.09;;;5.02;87.71
35224;BME280;21367;51.930;8.112;2023-04-10T04:31:15;101550.72;;;4.43;90.80
35224;BME280;21367;51.930;8.112;2023-04-10T04:36:40;101552.44;;;4.54;88.05
35224;BME280;21367;51.930;8.112;2023-04-10T04:41:58;101560.75;;;4.83;86.63
35224;BME280;21367;51.930;8.112;2023-04-10T04:47:21;101557.75;;;4.99;86.61
35224;BME280;21367;51.930;8.112;2023-04-10T04:52:47;101558.00;;;4.28;90.36
35224;BME280;21367;51.930;8.112;2023-04-10T04:58:06;101550.47;;;4.72;87.33
35224;BME280;21367;51.930;8.112;2023-04-10T05:03:39;101547.41;;;4.76;88.57
35224;BME280;21367;51.930;8.112;2023-04-10T05:09:10;101547.44;;;4.66;89.58
35224;BME280;21367;51.930;8.112;2023-04-10T05:14:34;101549.69;;;4.40;89.58
35224;BME280;21367;51.930;8.112;2023-04-10T05:19:54;101539.19;;;4.68;88.56
35224;BME280;21367;51.930;8.112;2023-04-10T05:25:21;101545.50;;;4.41;90.11
35224;BME280;21367;51.930;8.112;2023-04-10T05:30:44;101535.47;;;5.19;87.51
35224;BME280;21367;51.930;8.112;2023-04-10T05:36:07;101539.38;;;5.03;87.64
35224;BME280;21367;51.930;8.112;2023-04-10T05:41:33;101540.63;;;5.08;87.02
35224;BME280;21367;51.930;8.112;2023-04-10T05:46:55;101541.56;;;5.21;86.76
35224;BME280;21367;51.930;8.112;2023-04-10T05:52:22;101551.50;;;5.40;85.66
35224;BME280;21367;51.930;8.112;2023-04-10T05:57:52;101538.94;;;5.98;84.93
35224;BME280;21367;51.930;8.112;2023-04-10T06:03:05;101545.72;;;6.10;84.19
35224;BME280;21367;51.930;8.112;2023-04-10T06:08:20;101535.41;;;6.20;83.83
35224;BME280;21367;51.930;8.112;2023-04-10T06:13:26;101534.53;;;6.31;83.57
35224;BME280;21367;51.930;8.112;2023-04-10T06:18:33;101522.63;;;6.20;84.27
35224;BME280;21367;51.930;8.112;2023-04-10T06:23:37;101517.09;;;6.49;83.55
35224;BME280;21367;51.930;8.112;2023-04-10T06:28:44;101516.53;;;6.30;83.24
35224;BME280;21367;51.930;8.112;2023-04-10T06:33:49;101509.53;;;6.51;82.95
35224;BME280;21367;51.930;8.112;2023-04-10T06:38:54;101508.78;;;6.40;83.35
35224;BME280;21367;51.930;8.112;2023-04-10T06:44:01;101494.63;;;6.68;81.76
35224;BME280;21367;51.930;8.112;2023-04-10T06:49:05;101499.28;;;6.74;82.07
35224;BME280;21367;51.930;8.112;2023-04-10T06:54:09;101494.97;;;7.23;80.33
35224;BME280;21367;51.930;8.112;2023-04-10T06:59:19;101494.97;;;7.23;80.52
35224;BME280;21367;51.930;8.112;2023-04-10T07:04:23;101494.44;;;7.65;79.42
35224;BME280;21367;51.930;8.112;2023-04-10T07:09:28;101494.66;;;7.95;78.76
35224;BME280;21367;51.930;8.112;2023-04-10T07:14:35;101494.28;;;8.29;77.61
35224;BME280;21367;51.930;8.112;2023-04-10T07:19:39;101486.66;;;8.70;76.78
35224;BME280;21367;51.930;8.112;2023-04-10T07:24:43;101480.03;;;9.15;74.12
35224;BME280;21367;51.930;8.112;2023-04-10T07:29:51;101470.22;;;9.53;71.67
35224;BME280;21367;51.930;8.112;2023-04-10T07:34:54;101467.31;;;9.91;69.54
35224;BME280;21367;51.930;8.112;2023-04-10T07:39:58;101462.25;;;9.92;69.43
35224;BME280;21367;51.930;8.112;2023-04-10T07:45:08;101447.53;;;10.34;69.10
35224;BME280;21367;51.930;8.112;2023-04-10T07:50:12;101447.88;;;10.57;68.06
35224;BME280;21367;51.930;8.112;2023-04-10T07:55:17;101437.78;;;10.93;66.83
35224;BME280;21367;51.930;8.112;2023-04-10T08:00:24;101429.78;;;11.55;64.53
35224;BME280;21367;51.930;8.112;2023-04-10T08:05:28;101431.28;;;11.68;63.37
35224;BME280;21367;51.930;8.112;2023-04-10T08:10:32;101424.34;;;12.01;63.16
35224;BME280;21367;51.930;8.112;2023-04-10T08:15:39;101415.09;;;12.42;62.02
35224;BME280;21367;51.930;8.112;2023-04-10T08:20:43;101412.06;;;12.50;61.76
35224;BME280;21367;51.930;8.112;2023-04-10T08:25:46;101411.56;;;12.22;60.99
35224;BME280;21367;51.930;8.112;2023-04-10T08:30:54;101400.28;;;12.38;63.50
35224;BME280;21367;51.930;8.112;2023-04-10T08:35:58;101390.19;;;12.81;61.13
35224;BME280;21367;51.930;8.112;2023-04-10T08:41:03;101386.22;;;13.28;60.94
35224;BME280;21367;51.930;8.112;2023-04-10T08:46:10;101373.78;;;13.39;59.08
35224;BME280;21367;51.930;8.112;2023-04-10T08:51:17;101359.72;;;13.32;59.38
35224;BME280;21367;51.930;8.112;2023-04-10T08:56:22;101362.69;;;13.22;58.33
35224;BME280;21367;51.930;8.112;2023-04-10T09:01:30;101341.00;;;13.59;58.21
35224;BME280;21367;51.930;8.112;2023-04-10T09:06:34;101328.06;;;13.80;57.90
35224;BME280;21367;51.930;8.112;2023-04-10T09:11:57;101318.81;;;14.09;57.02
35224;BME280;21367;51.930;8.112;2023-04-10T09:17:13;101301.78;;;14.14;56.60
35224;BME280;21367;51.930;8.112;2023-04-10T09:22:28;101298.91;;;14.53;55.09
35224;BME280;21367;51.930;8.112;2023-04-10T09:27:33;101294.88;;;14.61;54.63
35224;BME280;21367;51.930;8.112;2023-04-10T09:32:43;101285.16;;;15.05;52.61
35224;BME280;21367;51.930;8.112;2023-04-10T09:37:47;101272.34;;;15.10;50.73
35224;BME280;21367;51.930;8.112;2023-04-10T09:42:51;101267.13;;;15.35;49.22
35224;BME280;21367;51.930;8.112;2023-04-10T09:48:13;101269.97;;;15.43;47.92
35224;BME280;21367;51.930;8.112;2023-04-10T09:53:18;101246.41;;;15.35;48.23
35224;BME280;21367;51.930;8.112;2023-04-10T09:58:23;101245.94;;;15.76;47.86
35224;BME280;21367;51.930;8.112;2023-04-10T10:03:32;101237.06;;;15.96;46.05
35224;BME280;21367;51.930;8.112;2023-04-10T10:08:36;101229.97;;;16.21;45.24
35224;BME280;21367;51.930;8.112;2023-04-10T10:13:46;101228.16;;;16.18;44.86
35224;BME280;21367;51.930;8.112;2023-04-10T10:19:00;101211.72;;;16.51;45.48
35224;BME280;21367;51.930;8.112;2023-04-10T10:24:08;101212.00;;;16.61;44.81
35224;BME280;21367;51.930;8.112;2023-04-10T10:29:14;101207.19;;;16.75;44.35
35224;BME280;21367;51.930;8.112;2023-04-10T10:34:21;101198.66;;;16.48;43.75
35224;BME280;21367;51.930;8.112;2023-04-10T10:39:33;101193.25;;;16.73;45.21
35224;BME280;21367;51.930;8.112;2023-04-10T10:44:46;101181.44;;;16.83;44.06
35224;BME280;21367;51.930;8.112;2023-04-10T10:49:56;101181.78;;;16.98;45.48
35224;BME280;21367;51.930;8.112;2023-04-10T10:55:26;101168.00;;;16.66;42.34
35224;BME280;21367;51.930;8.112;2023-04-10T11:01:04;101170.84;;;17.11;43.49
35224;BME280;21367;51.930;8.112;2023-04-10T11:06:46;101152.31;;;17.35;42.82
35224;BME280;21367;51.930;8.112;2023-04-10T11:11:56;101142.09;;;17.86;42.20
35224;BME280;21367;51.930;8.112;2023-04-10T11:17:01;101111.19;;;17.57;42.53
35224;BME280;21367;51.930;8.112;2023-04-10T11:22:08;101111.53;;;17.31;42.56
35224;BME280;21367;51.930;8.112;2023-04-10T11:27:39;101097.59;;;17.28;42.47
35224;BME280;21367;51.930;8.112;2023-04-10T11:32:44;101094.91;;;17.67;42.90
35224;BME280;21367;51.930;8.112;2023-04-10T11:38:07;101086.16;;;18.08;41.78
35224;BME280;21367;51.930;8.112;2023-04-10T11:43:12;101073.66;;;18.38;42.40
35224;BME280;21367;51.930;8.112;2023-04-10T11:48:16;101060.22;;;18.12;40.90
35224;BME280;21367;51.930;8.112;2023-04-10T11:53:23;101056.53;;;17.54;42.21
35224;BME280;21367;51.930;8.112;2023-04-10T11:58:29;101040.81;;;18.46;41.52
35224;BME280;21367;51.930;8.112;2023-04-10T12:03:37;101029.94;;;18.17;40.26
35224;BME280;21367;51.930;8.112;2023-04-10T12:08:45;101023.91;;;18.75;40.32
35224;BME280;21367;51.930;8.112;2023-04-10T12:13:51;101010.84;;;19.43;40.91
35224;BME280;21367;51.930;8.112;2023-04-10T12:18:55;100998.75;;;19.51;40.66
35224;BME280;21367;51.930;8.112;2023-04-10T12:24:02;100995.22;;;19.45;40.29
35224;BME280;21367;51.930;8.112;2023-04-10T12:29:06;100978.25;;;19.03;40.72
35224;BME280;21367;51.930;8.112;2023-04-10T12:34:17;100978.69;;;19.46;39.52
35224;BME280;21367;51.930;8.112;2023-04-10T12:39:24;100974.47;;;18.78;40.00
35224;BME280;21367;51.930;8.112;2023-04-10T12:44:28;100964.97;;;18.83;40.08
35224;BME280;21367;51.930;8.112;2023-04-10T12:49:32;100956.97;;;19.45;38.95
35224;BME280;21367;51.930;8.112;2023-04-10T12:54:38;100948.34;;;18.73;39.10
35224;BME280;21367;51.930;8.112;2023-04-10T12:59:42;100943.91;;;18.67;40.59
35224;BME280;21367;51.930;8.112;2023-04-10T13:04:46;100926.25;;;19.13;40.32
35224;BME280;21367;51.930;8.112;2023-04-10T13:09:53;100917.19;;;18.79;40.52
35224;BME280;21367;51.930;8.112;2023-04-10T13:14:57;100890.66;;;19.12;39.13
35224;BME280;21367;51.930;8.112;2023-04-10T13:20:01;100884.81;;;18.59;39.19
35224;BME280;21367;51.930;8.112;2023-04-10T13:25:08;100874.69;;;18.83;39.86
35224;BME280;21367;51.930;8.112;2023-04-10T13:30:12;100867.53;;;18.65;39.94
35224;BME280;21367;51.930;8.112;2023-04-10T13:35:16;100855.28;;;17.91;40.59
35224;BME280;21367;51.930;8.112;2023-04-10T13:40:23;100843.72;;;18.36;39.68
35224;BME280;21367;51.930;8.112;2023-04-10T13:45:27;100830.97;;;19.45;39.09
35224;BME280;21367;51.930;8.112;2023-04-10T13:50:31;100816.75;;;20.39;37.61
35224;BME280;21367;51.930;8.112;2023-04-10T13:55:37;100796.66;;;22.40;35.99
35224;BME280;21367;51.930;8.112;2023-04-10T14:00:43;100797.66;;;20.50;36.49
35224;BME280;21367;51.930;8.112;2023-04-10T14:05:47;100778.16;;;19.70;37.10
35224;BME280;21367;51.930;8.112;2023-04-10T14:10:54;100766.53;;;19.25;37.16
35224;BME280;21367;51.930;8.112;2023-04-10T14:15:58;100767.59;;;19.55;37.72
35224;BME280;21367;51.930;8.112;2023-04-10T14:21:04;100756.25;;;19.45;37.67
35224;BME280;21367;51.930;8.112;2023-04-10T14:26:10;100743.44;;;19.83;38.02
35224;BME280;21367;51.930;8.112;2023-04-10T14:31:14;100748.69;;;19.90;37.76
35224;BME280;21367;51.930;8.112;2023-04-10T14:36:17;100737.47;;;18.75;40.83
35224;BME280;21367;51.930;8.112;2023-04-10T14:41:25;100715.53;;;18.53;40.80
35224;BME280;21367;51.930;8.112;2023-04-10T14:46:29;100703.88;;;18.17;41.77
35224;BME280;21367;51.930;8.112;2023-04-10T14:51:33;100695.16;;;18.10;41.46
35224;BME280;21367;51.930;8.112;2023-04-10T14:56:40;100680.94;;;17.82;41.89
35224;BME280;21367;51.930;8.112;2023-04-10T15:01:43;100662.28;;;18.18;42.02
35224;BME280;21367;51.930;8.112;2023-04-10T15:06:47;100652.25;;;17.76;42.61
35224;BME280;21367;51.930;8.112;2023-04-10T15:11:54;100637.66;;;17.84;42.14
35224;BME280;21367;51.930;8.112;2023-04-10T15:16:58;100619.38;;;17.78;43.42
35224;BME280;21367;51.930;8.112;2023-04-10T15:22:02;100612.44;;;17.77;43.04
35224;BME280;21367;51.930;8.112;2023-04-10T15:27:09;100618.22;;;17.57;43.38
35224;BME280;21367;51.930;8.112;2023-04-10T15:32:13;100607.25;;;17.77;43.06
35224;BME280;21367;51.930;8.112;2023-04-10T15:37:17;100607.03;;;17.62;43.09
35224;BME280;21367;51.930;8.112;2023-04-10T15:42:24;100598.75;;;17.95;43.00
35224;BME280;21367;51.930;8.112;2023-04-10T15:47:28;100603.72;;;17.75;43.60
35224;BME280;21367;51.930;8.112;2023-04-10T15:52:32;100596.72;;;17.69;43.61
35224;BME280;21367;51.930;8.112;2023-04-10T15:57:39;100581.91;;;17.64;43.21
35224;BME280;21367;51.930;8.112;2023-04-10T16:02:43;100577.34;;;17.41;42.49
35224;BME280;21367;51.930;8.112;2023-04-10T16:07:47;100579.09;;;17.45;42.00
35224;BME280;21367;51.930;8.112;2023-04-10T16:12:53;100577.19;;;17.29;41.11
35224;BME280;21367;51.930;8.112;2023-04-10T16:18:04;100572.81;;;17.26;40.45
35224;BME280;21367;51.930;8.112;2023-04-10T16:23:09;100565.81;;;17.18;40.23
35224;BME280;21367;51.930;8.112;2023-04-10T16:28:15;100557.97;;;17.16;41.25
35224;BME280;21367;51.930;8.112;2023-04-10T16:33:19;100556.19;;;17.12;40.28
35224;BME280;21367;51.930;8.112;2023-04-10T16:38:23;100549.25;;;17.09;40.44
35224;BME280;21367;51.930;8.112;2023-04-10T16:43:30;100539.28;;;16.78;40.34
35224;BME280;21367;51.930;8.112;2023-04-10T16:48:34;100529.47;;;16.58;40.76
35224;BME280;21367;51.930;8.112;2023-04-10T16:53:38;100516.47;;;16.57;41.80
35224;BME280;21367;51.930;8.112;2023-04-10T16:58:45;100505.16;;;16.53;41.50
35224;BME280;21367;51.930;8.112;2023-04-10T17:03:49;100501.78;;;16.59;41.39
35224;BME280;21367;51.930;8.112;2023-04-10T17:08:53;100479.69;;;16.26;41.81
35224;BME280;21367;51.930;8.112;2023-04-10T17:14:00;100474.28;;;16.11;42.55
35224;BME280;21367;51.930;8.112;2023-04-10T17:19:05;100467.53;;;16.22;42.11
35224;BME280;21367;51.930;8.112;2023-04-10T17:24:14;100444.81;;;16.06;41.90
35224;BME280;21367;51.930;8.112;2023-04-10T17:29:37;100440.81;;;15.73;42.98
35224;BME280;21367;51.930;8.112;2023-04-10T17:34:41;100420.75;;;15.61;43.31
35224;BME280;21367;51.930;8.112;2023-04-10T17:39:45;100409.88;;;15.81;42.64
35224;BME280;21367;51.930;8.112;2023-04-10T17:44:54;100393.06;;;15.60;43.52
35224;BME280;21367;51.930;8.112;2023-04-10T17:49:58;100382.16;;;15.77;42.74
35224;BME280;21367;51.930;8.112;2023-04-10T17:55:02;100391.38;;;15.61;43.63
35224;BME280;21367;51.930;8.112;2023-04-10T18:00:11;100397.34;;;15.57;43.51
35224;BME280;21367;51.930;8.112;2023-04-10T18:05:17;100388.94;;;15.67;43.67
35224;BME280;21367;51.930;8.112;2023-04-10T18:10:21;100370.72;;;15.64;43.89
35224;BME280;21367;51.930;8.112;2023-04-10T18:15:28;100386.41;;;15.71;43.93
35224;BME280;21367;51.930;8.112;2023-04-10T18:20:33;100374.75;;;15.48;44.62
35224;BME280;21367;51.930;8.112;2023-04-10T18:25:37;100393.81;;;15.53;44.68
35224;BME280;21367;51.930;8.112;2023-04-10T18:30:44;100412.66;;;15.43;44.61
35224;BME280;21367;51.930;8.112;2023-04-10T18:35:48;100411.75;;;15.41;45.13
35224;BME280;21367;51.930;8.112;2023-04-10T18:40:54;100429.97;;;15.45;45.51
35224;BME280;21367;51.930;8.112;2023-04-10T18:46:01;100441.44;;;15.13;47.00
35224;BME280;21367;51.930;8.112;2023-04-10T18:51:05;100479.03;;;14.94;50.14
35224;BME280;21367;51.930;8.112;2023-04-10T18:56:13;100473.81;;;14.15;57.44
35224;BME280;21367;51.930;8.112;2023-04-10T19:12:40;100491.63;;;12.49;76.31
35224;BME280;21367;51.930;8.112;2023-04-10T19:17:45;100514.00;;;12.50;79.95
35224;BME280;21367;51.930;8.112;2023-04-10T19:22:48;100510.34;;;12.43;81.97
35224;BME280;21367;51.930;8.112;2023-04-10T19:27:54;100494.44;;;12.02;85.19
35224;BME280;21367;51.930;8.112;2023-04-10T19:32:58;100480.50;;;11.96;87.04
35224;BME280;21367;51.930;8.112;2023-04-10T19:38:02;100446.19;;;11.97;88.56
35224;BME280;21367;51.930;8.112;2023-04-10T19:43:08;100452.13;;;11.94;89.54
35224;BME280;21367;51.930;8.112;2023-04-10T19:48:13;100437.94;;;11.56;90.19
35224;BME280;21367;51.930;8.112;2023-04-10T19:53:18;100421.91;;;11.89;90.38
35224;BME280;21367;51.930;8.112;2023-04-10T19:58:24;100415.88;;;11.88;91.29
35224;BME280;21367;51.930;8.112;2023-04-10T20:03:27;100420.19;;;11.89;92.71
35224;BME280;21367;51.930;8.112;2023-04-10T20:08:32;100413.38;;;12.18;90.04
35224;BME280;21367;51.930;8.112;2023-04-10T20:13:38;100414.09;;;12.41;89.39
35224;BME280;21367;51.930;8.112;2023-04-10T20:18:41;100414.59;;;12.02;92.44
35224;BME280;21367;51.930;8.112;2023-04-10T20:23:45;100411.34;;;12.08;91.06
35224;BME280;21367;51.930;8.112;2023-04-10T20:28:52;100396.38;;;11.69;92.46
35224;BME280;21367;51.930;8.112;2023-04-10T20:33:56;100398.31;;;11.76;93.48
35224;BME280;21367;51.930;8.112;2023-04-10T20:39:00;100393.63;;;11.65;95.26
35224;BME280;21367;51.930;8.112;2023-04-10T20:44:06;100404.06;;;11.44;96.28
35224;BME280;21367;51.930;8.112;2023-04-10T20:49:10;100400.28;;;11.07;98.94
35224;BME280;21367;51.930;8.112;2023-04-10T20:54:15;100401.56;;;10.72;100.00
35224;BME280;21367;51.930;8.112;2023-04-10T20:59:25;100403.25;;;10.71;100.00
35224;BME280;21367;51.930;8.112;2023-04-10T21:04:29;100409.06;;;10.65;100.00
35224;BME280;21367;51.930;8.112;2023-04-10T21:09:33;100407.28;;;10.40;100.00
35224;BME280;21367;51.930;8.112;2023-04-10T21:14:39;100395.00;;;10.80;100.00
35224;BME280;21367;51.930;8.112;2023-04-10T21:19:43;100391.25;;;10.70;100.00
35224;BME280;21367;51.930;8.112;2023-04-10T21:24:47;100389.16;;;10.84;100.00
35224;BME280;21367;51.930;8.112;2023-04-10T21:29:53;100384.72;;;10.80;100.00
35224;BME280;21367;51.930;8.112;2023-04-10T21:34:57;100384.34;;;10.69;100.00
35224;BME280;21367;51.930;8.112;2023-04-10T21:40:01;100387.00;;;10.48;100.00
35224;BME280;21367;51.930;8.112;2023-04-10T21:45:09;100375.03;;;10.49;100.00
35224;BME280;21367;51.930;8.112;2023-04-10T21:50:15;100365.69;;;10.51;100.00
35224;BME280;21367;51.930;8.112;2023-04-10T21:55:19;100341.56;;;10.25;100.00
35224;BME280;21367;51.930;8.112;2023-04-10T22:00:25;100355.69;;;10.34;100.00
35224;BME280;21367;51.930;8.112;2023-04-10T22:05:29;100353.38;;;10.19;100.00
35224;BME280;21367;51.930;8.112;2023-04-10T22:10:33;100353.53;;;10.02;100.00
35224;BME280;21367;51.930;8.112;2023-04-10T22:15:40;100336.75;;;10.10;100.00
35224;BME280;21367;51.930;8.112;2023-04-10T22:20:44;100313.06;;;9.94;100.00
35224;BME280;21367;51.930;8.112;2023-04-10T22:25:48;100278.84;;;9.95;100.00
35224;BME280;21367;51.930;8.112;2023-04-10T22:30:54;100242.50;;;10.07;100.00
35224;BME280;21367;51.930;8.112;2023-04-10T22:35:58;100272.31;;;10.04;100.00
35224;BME280;21367;51.930;8.112;2023-04-10T22:41:02;100281.78;;;9.82;100.00
35224;BME280;21367;51.930;8.112;2023-04-10T22:46:08;100275.16;;;9.87;100.00
35224;BME280;21367;51.930;8.112;2023-04-10T22:51:13;100329.47;;;9.77;100.00
35224;BME280;21367;51.930;8.112;2023-04-10T22:56:17;100295.75;;;9.45;100.00
35224;BME280;21367;51.930;8.112;2023-04-10T23:01:27;100311.69;;;9.59;100.00
35224;BME280;21367;51.930;8.112;2023-04-10T23:06:31;100292.22;;;9.64;100.00
35224;BME280;21367;51.930;8.112;2023-04-10T23:11:35;100266.03;;;9.73;100.00
35224;BME280;21367;51.930;8.112;2023-04-10T23:16:44;100251.16;;;9.64;100.00
35224;BME280;21367;51.930;8.112;2023-04-10T23:21:49;100230.34;;;9.57;100.00
35224;BME280;21367;51.930;8.112;2023-04-10T23:26:56;100223.41;;;9.32;100.00
35224;BME280;21367;51.930;8.112;2023-04-10T23:32:02;100230.72;;;9.22;100.00
35224;BME280;21367;51.930;8.112;2023-04-10T23:37:07;100208.06;;;9.33;100.00
35224;BME280;21367;51.930;8.112;2023-04-10T23:42:11;100213.13;;;9.32;100.00
35224;BME280;21367;51.930;8.112;2023-04-10T23:47:18;100221.31;;;9.00;100.00
35224;BME280;21367;51.930;8.112;2023-04-10T23:52:21;100221.13;;;9.39;100.00
35224;BME280;21367;51.930;8.112;2023-04-10T23:57:25;100241.22;;;9.08;100.00
